Time;durP1;ratioP1;P1;durP2;ratioP2;P2;SDS_P1;SDS_P2;PMS_P1;PMS_P2;Temp;Humidity;BMP_temperature;BMP_pressure;BME280_temperature;BME280_humidity;BME280_pressure;Samples;Min_cycle;Max_cycle;Signal;HPM_P1;HPM_P2
2022/02/14 00:01:22;;;;;;;10.38;3.88;;;6.40;72.90;;;;;;5060675;28;20047;-76
2022/02/14 00:03:47;;;;;;;7.82;3.67;;;6.40;72.80;;;;;;5060597;28;20471;-76
2022/02/14 00:06:13;;;;;;;7.80;4.00;;;6.30;73.10;;;;;;5066936;28;20065;-76
2022/02/14 00:08:38;;;;;;;8.20;3.83;;;6.50;72.40;;;;;;5060743;28;20454;-76
2022/02/14 00:11:04;;;;;;;10.23;3.78;;;6.50;72.60;;;;;;5056913;28;20070;-76
2022/02/14 00:13:30;;;;;;;9.80;3.60;;;6.40;72.70;;;;;;5061794;28;20040;-76
2022/02/14 00:15:56;;;;;;;9.20;3.92;;;6.40;72.60;;;;;;5064032;28;20161;-77
2022/02/14 00:18:21;;;;;;;7.38;3.50;;;6.40;73.00;;;;;;5057746;28;20416;-77
2022/02/14 00:20:47;;;;;;;10.23;3.72;;;6.40;72.60;;;;;;5060953;28;20025;-76
2022/02/14 00:23:12;;;;;;;8.30;3.92;;;6.40;72.80;;;;;;5065778;28;20123;-76
2022/02/14 00:25:38;;;;;;;9.07;3.63;;;6.50;72.40;;;;;;5062501;28;20352;-76
2022/02/14 00:28:04;;;;;;;9.60;3.47;;;6.50;72.10;;;;;;5066947;28;20028;-76
2022/02/14 00:30:30;;;;;;;9.88;4.00;;;6.50;72.20;;;;;;5067739;28;20074;-77
2022/02/14 00:32:56;;;;;;;8.90;3.50;;;6.60;71.90;;;;;;5062252;28;20507;-77
2022/02/14 00:35:21;;;;;;;7.22;3.92;;;6.50;72.30;;;;;;5051484;28;20068;-76
2022/02/14 00:37:48;;;;;;;7.05;4.07;;;6.40;72.60;;;;;;5065323;28;20173;-76
2022/02/14 00:40:14;;;;;;;7.68;3.25;;;6.50;72.40;;;;;;5053562;28;20025;-76
2022/02/14 00:42:40;;;;;;;5.90;3.13;;;6.40;72.60;;;;;;5057657;28;20051;-76
2022/02/14 00:45:06;;;;;;;10.40;4.22;;;6.50;72.00;;;;;;5060312;28;20062;-76
2022/02/14 00:47:31;;;;;;;7.85;3.42;;;6.50;72.10;;;;;;5058978;28;20079;-77
2022/02/14 00:49:57;;;;;;;11.63;3.53;;;6.40;72.40;;;;;;5065531;28;20028;-76
2022/02/14 00:52:23;;;;;;;7.65;3.85;;;6.60;71.80;;;;;;5062188;28;20033;-77
2022/02/14 00:54:49;;;;;;;8.05;3.70;;;6.40;72.30;;;;;;5065744;28;20028;-76
2022/02/14 00:57:14;;;;;;;5.55;3.30;;;6.30;73.10;;;;;;5056299;28;20467;-76
2022/02/14 00:59:41;;;;;;;12.38;3.80;;;6.20;73.20;;;;;;5054572;28;20051;-76
2022/02/14 01:02:07;;;;;;;10.30;3.88;;;6.10;73.30;;;;;;5064613;28;20024;-76
2022/02/14 01:04:32;;;;;;;6.90;3.60;;;6.10;73.60;;;;;;5061043;28;20032;-76
2022/02/14 01:06:58;;;;;;;9.45;4.13;;;6.20;73.30;;;;;;5064155;28;20415;-77
2022/02/14 01:09:23;;;;;;;6.50;3.42;;;6.40;73.00;;;;;;5049905;28;20024;-77
2022/02/14 01:11:49;;;;;;;9.98;3.17;;;6.40;72.70;;;;;;5050677;28;20459;-76
2022/02/14 01:14:14;;;;;;;9.73;3.60;;;6.30;72.90;;;;;;5054580;28;20032;-76
2022/02/14 01:16:40;;;;;;;6.55;3.35;;;6.30;72.90;;;;;;5065900;28;20055;-77
2022/02/14 01:19:06;;;;;;;11.43;3.20;;;6.30;73.10;;;;;;5064420;28;20452;-77
2022/02/14 01:21:31;;;;;;;6.72;3.25;;;6.40;72.60;;;;;;5061706;28;20044;-76
2022/02/14 01:23:57;;;;;;;8.50;3.13;;;6.30;72.90;;;;;;5057628;28;20021;-76
2022/02/14 01:26:22;;;;;;;8.90;3.25;;;6.40;72.60;;;;;;5058406;28;20033;-77
2022/02/14 01:28:48;;;;;;;5.82;3.47;;;6.50;72.30;;;;;;5051855;28;20302;-76
2022/02/14 01:31:13;;;;;;;10.38;3.47;;;6.40;72.50;;;;;;5062382;28;20298;-76
2022/02/14 01:33:39;;;;;;;6.63;3.17;;;6.40;72.70;;;;;;5065732;28;20021;-77
2022/02/14 01:36:05;;;;;;;9.05;3.47;;;6.50;72.30;;;;;;5073713;28;20032;-76
2022/02/14 01:38:30;;;;;;;8.40;3.47;;;6.50;72.30;;;;;;5066049;28;20032;-76
2022/02/14 01:40:56;;;;;;;10.40;3.42;;;6.40;72.60;;;;;;5062163;28;20116;-76
2022/02/14 01:43:21;;;;;;;6.07;3.40;;;6.60;71.90;;;;;;5059339;28;20369;-76
2022/02/14 01:45:47;;;;;;;6.53;3.22;;;6.60;72.30;;;;;;5060919;28;20453;-76
2022/02/14 01:48:13;;;;;;;8.10;3.20;;;6.70;71.70;;;;;;5049551;28;20032;-76
2022/02/14 01:50:38;;;;;;;7.75;3.10;;;6.70;71.70;;;;;;5052538;28;20025;-76
2022/02/14 01:53:05;;;;;;;8.55;2.95;;;6.70;71.70;;;;;;5055213;28;20376;-76
2022/02/14 01:55:32;;;;;;;8.32;3.38;;;6.70;71.70;;;;;;5060120;28;20036;-76
2022/02/14 01:58:02;;;;;;;9.25;2.85;;;6.60;71.50;;;;;;5053172;28;20052;-76
2022/02/14 02:00:29;;;;;;;4.65;2.78;;;6.60;71.60;;;;;;5062506;28;20035;-76
2022/02/14 02:02:55;;;;;;;10.80;3.20;;;6.60;72.00;;;;;;5059822;28;20029;-76
2022/02/14 02:05:21;;;;;;;7.18;3.10;;;6.50;72.30;;;;;;5058271;28;20124;-77
2022/02/14 02:07:47;;;;;;;10.00;2.90;;;6.70;71.60;;;;;;5063167;28;20056;-76
2022/02/14 02:10:13;;;;;;;7.63;2.90;;;6.60;72.20;;;;;;5063590;28;20467;-77
2022/02/14 02:12:48;;;;;;;4.85;2.67;;;6.50;72.10;;;;;;5052873;28;20452;-76
2022/02/14 02:15:14;;;;;;;5.97;2.60;;;6.40;72.60;;;;;;5081581;28;20081;-77
2022/02/14 02:17:40;;;;;;;9.52;3.15;;;6.30;73.00;;;;;;5064927;28;20095;-76
2022/02/14 02:20:08;;;;;;;8.02;3.00;;;6.30;72.70;;;;;;5054151;28;20035;-76
2022/02/14 02:22:34;;;;;;;7.55;3.00;;;6.20;73.20;;;;;;5051226;28;20036;-76
2022/02/14 02:25:00;;;;;;;6.85;2.85;;;6.10;73.60;;;;;;5059299;28;20037;-76
2022/02/14 02:27:27;;;;;;;8.80;3.35;;;6.00;74.20;;;;;;5054967;28;20410;-77
2022/02/14 02:29:59;;;;;;;7.28;3.03;;;6.00;74.20;;;;;;5068162;28;20031;-76
2022/02/14 02:32:27;;;;;;;8.10;3.22;;;6.00;74.40;;;;;;5058250;28;20135;-76
2022/02/14 02:34:53;;;;;;;6.85;3.28;;;6.10;74.20;;;;;;5062394;28;20061;-76
2022/02/14 02:37:19;;;;;;;6.20;3.25;;;6.10;74.20;;;;;;5053545;28;20063;-77
2022/02/14 02:39:45;;;;;;;9.27;3.40;;;6.00;74.20;;;;;;5060430;28;20026;-76
2022/02/14 02:42:13;;;;;;;6.05;2.83;;;6.00;74.20;;;;;;5057665;28;20095;-77
2022/02/14 02:44:40;;;;;;;6.90;2.90;;;6.10;74.00;;;;;;5061760;28;20439;-76
2022/02/14 02:47:08;;;;;;;8.20;3.10;;;6.10;74.10;;;;;;5065313;28;20048;-77
2022/02/14 02:49:34;;;;;;;7.88;3.10;;;6.10;74.10;;;;;;5064603;28;20081;-76
2022/02/14 02:52:02;;;;;;;6.18;3.03;;;5.90;74.70;;;;;;5052891;28;20029;-77
2022/02/14 02:54:28;;;;;;;10.52;3.53;;;5.90;74.80;;;;;;5056945;28;20020;-77
2022/02/14 02:56:55;;;;;;;9.75;3.22;;;5.90;74.70;;;;;;5062336;28;20112;-77
2022/02/14 02:59:22;;;;;;;4.78;3.00;;;5.80;75.10;;;;;;5058294;28;20036;-76
2022/02/14 03:01:48;;;;;;;8.88;3.00;;;5.80;75.20;;;;;;5066399;28;20093;-76
2022/02/14 03:04:14;;;;;;;7.85;3.08;;;6.00;74.60;;;;;;5063854;28;20100;-77
2022/02/14 03:06:41;;;;;;;4.72;2.65;;;5.80;75.10;;;;;;5056826;28;20034;-76
2022/02/14 03:09:08;;;;;;;6.93;2.95;;;5.90;74.80;;;;;;5060453;28;20047;-76
2022/02/14 03:11:34;;;;;;;6.85;2.80;;;5.80;74.80;;;;;;5062248;28;20055;-76
2022/02/14 03:14:00;;;;;;;6.65;3.38;;;5.80;74.90;;;;;;5065192;28;20025;-76
2022/02/14 03:16:26;;;;;;;10.52;2.90;;;5.70;75.30;;;;;;5056595;28;20024;-76
2022/02/14 03:18:52;;;;;;;6.63;3.45;;;5.70;75.70;;;;;;5052416;28;20108;-76
2022/02/14 03:21:20;;;;;;;6.78;3.15;;;5.90;75.30;;;;;;5060123;28;20380;-77
2022/02/14 03:23:47;;;;;;;12.02;3.53;;;5.90;75.00;;;;;;5059333;28;20096;-77
2022/02/14 03:26:14;;;;;;;6.63;2.65;;;5.80;75.50;;;;;;5061930;28;20150;-76
2022/02/14 03:28:39;;;;;;;7.68;2.88;;;6.00;75.30;;;;;;5059381;28;20046;-77
2022/02/14 03:31:05;;;;;;;7.47;3.20;;;6.00;74.90;;;;;;5058659;28;20069;-77
2022/02/14 03:33:30;;;;;;;7.40;2.83;;;6.10;74.70;;;;;;5055799;28;20375;-76
2022/02/14 03:35:56;;;;;;;6.35;2.78;;;6.10;74.90;;;;;;5060653;28;20051;-76
2022/02/14 03:38:21;;;;;;;7.85;2.90;;;6.10;75.10;;;;;;5045823;28;20028;-77
2022/02/14 03:40:47;;;;;;;8.65;2.85;;;6.10;74.90;;;;;;5053726;28;20027;-77
2022/02/14 03:43:13;;;;;;;7.47;3.17;;;6.10;74.70;;;;;;5055289;28;20047;-77
2022/02/14 03:45:40;;;;;;;8.15;3.42;;;6.10;74.90;;;;;;5057149;28;20020;-77
2022/02/14 03:48:07;;;;;;;7.00;2.63;;;6.10;74.60;;;;;;5060566;28;20024;-77
2022/02/14 03:50:32;;;;;;;8.65;2.55;;;6.20;74.70;;;;;;5076063;28;20029;-77
2022/02/14 03:52:58;;;;;;;7.32;2.67;;;6.20;74.60;;;;;;5049733;28;20474;-77
2022/02/14 03:55:24;;;;;;;6.60;2.85;;;6.10;74.80;;;;;;5060760;28;20029;-76
2022/02/14 03:57:50;;;;;;;5.25;2.83;;;6.20;74.60;;;;;;5062626;28;20025;-77
2022/02/14 04:00:17;;;;;;;5.63;2.47;;;6.10;74.80;;;;;;5057452;28;20425;-77
2022/02/14 04:02:43;;;;;;;5.05;2.50;;;6.10;74.90;;;;;;5049872;28;20045;-77
2022/02/14 04:05:10;;;;;;;4.28;2.55;;;6.20;74.90;;;;;;5057231;28;20082;-77
2022/02/14 04:07:36;;;;;;;6.32;2.67;;;6.20;74.60;;;;;;5044173;28;20025;-76
2022/02/14 04:10:03;;;;;;;7.18;2.92;;;6.30;74.50;;;;;;5057595;28;20028;-77
2022/02/14 04:12:29;;;;;;;6.93;2.65;;;6.20;74.60;;;;;;5060750;28;20028;-77
2022/02/14 04:14:54;;;;;;;6.43;2.80;;;6.20;74.50;;;;;;5060932;28;20039;-76
2022/02/14 04:17:20;;;;;;;8.82;3.08;;;6.20;74.60;;;;;;5052812;28;20105;-76
2022/02/14 04:19:45;;;;;;;5.65;2.63;;;6.20;74.60;;;;;;5059953;28;20095;-77
2022/02/14 04:22:11;;;;;;;5.30;2.70;;;6.20;74.70;;;;;;5054994;28;20033;-77
2022/02/14 04:24:36;;;;;;;9.98;2.72;;;6.20;74.90;;;;;;5065793;28;20025;-77
2022/02/14 04:27:02;;;;;;;8.98;2.85;;;6.40;74.40;;;;;;5061983;28;20028;-77
2022/02/14 04:29:27;;;;;;;4.03;2.40;;;6.30;74.50;;;;;;5064782;28;20024;-77
2022/02/14 04:31:53;;;;;;;7.47;2.80;;;6.30;74.60;;;;;;5059594;28;20039;-76
2022/02/14 04:34:19;;;;;;;10.07;2.83;;;6.30;74.50;;;;;;5050064;28;20353;-77
2022/02/14 04:36:49;;;;;;;7.10;3.05;;;6.40;74.50;;;;;;5056084;28;20032;-77
2022/02/14 04:39:15;;;;;;;6.90;2.88;;;6.40;74.40;;;;;;5055698;28;20043;-76
2022/02/14 04:41:41;;;;;;;5.28;2.33;;;6.40;74.30;;;;;;5047965;28;20104;-77
2022/02/14 04:44:06;;;;;;;7.57;2.63;;;6.40;74.30;;;;;;5052491;28;20069;-77
2022/02/14 04:46:32;;;;;;;6.72;2.80;;;6.50;74.10;;;;;;5052898;28;20140;-77
2022/02/14 04:48:57;;;;;;;8.65;3.03;;;6.40;74.40;;;;;;5060416;28;20428;-76
2022/02/14 04:51:25;;;;;;;6.40;2.22;;;6.40;74.50;;;;;;5050863;28;20433;-76
2022/02/14 04:53:51;;;;;;;6.95;3.00;;;6.40;74.50;;;;;;5066672;28;20340;-77
2022/02/14 04:56:17;;;;;;;9.50;3.00;;;6.50;74.20;;;;;;5062172;28;20031;-77
2022/02/14 04:58:42;;;;;;;6.15;2.90;;;6.60;73.40;;;;;;5063386;28;20028;-76
2022/02/14 05:01:08;;;;;;;7.78;3.03;;;6.60;73.80;;;;;;5061033;28;20031;-77
2022/02/14 05:03:33;;;;;;;7.55;2.80;;;6.60;73.80;;;;;;5063712;28;20032;-76
2022/02/14 05:05:59;;;;;;;6.22;3.30;;;6.60;73.70;;;;;;5058533;28;20436;-76
2022/02/14 05:08:24;;;;;;;4.93;2.60;;;6.70;73.20;;;;;;5064448;28;20024;-77
2022/02/14 05:10:49;;;;;;;8.50;2.80;;;6.80;73.30;;;;;;5053254;28;20477;-76
2022/02/14 05:13:15;;;;;;;6.97;2.67;;;6.80;73.50;;;;;;5058381;28;20052;-77
2022/02/14 05:15:40;;;;;;;5.72;2.65;;;6.80;73.10;;;;;;5059635;28;20036;-77
2022/02/14 05:18:06;;;;;;;7.47;2.42;;;6.80;73.20;;;;;;5069379;28;20052;-76
2022/02/14 05:20:31;;;;;;;9.05;2.80;;;6.90;73.10;;;;;;5052131;28;20107;-72
2022/02/14 05:22:57;;;;;;;6.15;2.42;;;6.90;73.20;;;;;;5056295;28;20037;-72
2022/02/14 05:25:23;;;;;;;9.45;2.90;;;6.90;73.20;;;;;;5054897;28;20515;-73
2022/02/14 05:27:49;;;;;;;6.07;2.50;;;7.00;72.60;;;;;;5060755;28;20101;-74
2022/02/14 05:30:14;;;;;;;7.53;2.55;;;7.10;72.50;;;;;;5057082;28;20135;-70
2022/02/14 05:32:40;;;;;;;7.00;2.65;;;7.20;72.20;;;;;;5058613;28;20442;-70
2022/02/14 05:35:06;;;;;;;4.85;2.53;;;7.10;72.40;;;;;;5064598;28;20048;-70
2022/02/14 05:37:31;;;;;;;8.30;2.55;;;7.10;72.40;;;;;;5073198;28;20046;-70
2022/02/14 05:39:57;;;;;;;6.55;2.55;;;7.20;72.10;;;;;;5073627;28;20024;-70
2022/02/14 05:42:23;;;;;;;5.20;2.50;;;7.10;72.50;;;;;;5065368;28;20049;-70
2022/02/14 05:44:49;;;;;;;5.30;2.50;;;7.10;72.40;;;;;;5073032;28;20143;-70
2022/02/14 05:47:14;;;;;;;8.57;3.10;;;7.10;72.30;;;;;;5066549;28;20600;-70
2022/02/14 05:49:40;;;;;;;7.72;2.53;;;7.00;72.50;;;;;;5050252;28;20035;-70
2022/02/14 05:52:06;;;;;;;8.98;2.75;;;7.00;72.60;;;;;;5063498;28;20029;-70
2022/02/14 05:54:32;;;;;;;5.75;2.40;;;6.90;72.80;;;;;;5067013;28;20022;-70
2022/02/14 05:56:58;;;;;;;6.32;2.58;;;6.90;73.20;;;;;;5055288;28;20566;-70
2022/02/14 05:59:24;;;;;;;9.45;2.70;;;6.90;73.10;;;;;;5072918;28;20051;-70
2022/02/14 06:01:49;;;;;;;3.80;2.45;;;7.00;72.30;;;;;;5062971;28;20059;-70
2022/02/14 06:04:15;;;;;;;5.78;2.53;;;7.00;72.60;;;;;;5055487;28;20105;-71
2022/02/14 06:06:41;;;;;;;11.82;2.53;;;7.00;72.30;;;;;;5064265;28;20039;-70
2022/02/14 06:09:06;;;;;;;7.45;2.50;;;7.00;72.40;;;;;;5066753;28;20028;-70
2022/02/14 06:11:32;;;;;;;10.43;2.78;;;7.10;71.80;;;;;;5066213;28;20524;-70
2022/02/14 06:13:58;;;;;;;8.75;2.42;;;7.00;72.20;;;;;;5063006;28;20094;-70
2022/02/14 06:16:23;;;;;;;5.50;2.47;;;7.10;71.60;;;;;;5059755;28;20107;-70
2022/02/14 06:18:49;;;;;;;9.23;2.60;;;7.00;72.20;;;;;;5061919;28;20448;-70
2022/02/14 06:21:14;;;;;;;8.50;3.03;;;7.10;72.10;;;;;;5051491;28;20051;-70
2022/02/14 06:23:42;;;;;;;8.32;2.70;;;7.00;72.10;;;;;;5055959;28;20132;-70
2022/02/14 06:26:07;;;;;;;4.50;2.63;;;7.00;72.10;;;;;;5065199;28;20442;-70
2022/02/14 06:28:38;;;;;;;5.30;2.33;;;7.00;72.40;;;;;;5059386;28;20035;-70
2022/02/14 06:31:05;;;;;;;9.15;2.90;;;7.10;72.00;;;;;;5053618;28;20044;-71
2022/02/14 06:33:30;;;;;;;5.65;1.90;;;7.10;71.40;;;;;;5081588;28;20062;-71
2022/02/14 06:35:56;;;;;;;4.80;2.25;;;7.00;72.00;;;;;;5065287;28;20058;-70
2022/02/14 06:38:21;;;;;;;6.53;2.58;;;7.00;72.20;;;;;;5063528;28;20067;-71
2022/02/14 06:40:47;;;;;;;8.55;2.70;;;6.90;72.60;;;;;;5053466;28;20037;-71
2022/02/14 06:43:12;;;;;;;4.43;2.60;;;6.80;72.70;;;;;;5061695;28;20044;-71
2022/02/14 06:45:38;;;;;;;7.45;2.60;;;6.80;72.80;;;;;;5056463;28;20127;-70
2022/02/14 06:48:04;;;;;;;7.38;2.38;;;6.80;72.90;;;;;;5063752;28;20040;-71
2022/02/14 06:50:30;;;;;;;6.45;2.47;;;6.80;72.80;;;;;;5066141;28;20027;-70
2022/02/14 06:52:55;;;;;;;6.32;2.25;;;6.90;72.70;;;;;;5062112;28;20028;-70
2022/02/14 06:55:21;;;;;;;7.88;2.95;;;6.80;72.70;;;;;;5061821;28;20047;-71
2022/02/14 06:57:46;;;;;;;6.13;2.58;;;6.90;72.30;;;;;;5057823;28;20025;-70
2022/02/14 07:00:14;;;;;;;5.88;2.65;;;6.90;72.60;;;;;;5056688;28;20021;-71
2022/02/14 07:02:41;;;;;;;5.38;2.35;;;6.90;72.60;;;;;;5065866;28;20032;-70
2022/02/14 07:05:07;;;;;;;6.00;2.42;;;6.90;72.40;;;;;;5064768;28;20021;-70
2022/02/14 07:07:33;;;;;;;5.85;2.00;;;7.00;71.90;;;;;;5062336;28;20090;-71
2022/02/14 07:09:58;;;;;;;5.65;2.58;;;7.00;72.20;;;;;;5070250;28;20116;-70
2022/02/14 07:12:24;;;;;;;5.68;2.33;;;7.00;72.20;;;;;;5060285;28;20033;-71
2022/02/14 07:14:49;;;;;;;8.82;2.45;;;7.10;71.80;;;;;;5047911;28;20028;-71
2022/02/14 07:17:15;;;;;;;8.35;2.78;;;7.10;71.70;;;;;;5060199;28;20032;-70
2022/02/14 07:19:40;;;;;;;5.53;2.22;;;7.20;71.50;;;;;;5048989;28;20044;-71
2022/02/14 07:22:06;;;;;;;6.97;2.38;;;7.30;71.10;;;;;;5051600;28;20097;-71
2022/02/14 07:24:32;;;;;;;6.88;2.50;;;7.30;71.30;;;;;;5057558;28;20024;-70
2022/02/14 07:26:58;;;;;;;6.60;2.35;;;7.30;71.40;;;;;;5061481;28;20048;-71
2022/02/14 07:29:23;;;;;;;6.03;2.22;;;7.30;71.70;;;;;;5057104;28;20372;-70
2022/02/14 07:31:49;;;;;;;6.32;2.42;;;7.40;71.10;;;;;;5060579;28;20055;-70
2022/02/14 07:34:15;;;;;;;5.10;2.08;;;7.40;71.00;;;;;;5057619;28;20032;-71
2022/02/14 07:36:40;;;;;;;5.97;2.47;;;7.40;71.40;;;;;;5058788;28;20087;-71
2022/02/14 07:39:06;;;;;;;10.02;2.35;;;7.50;71.10;;;;;;5054637;28;20039;-70
2022/02/14 07:41:32;;;;;;;7.30;2.10;;;7.60;70.80;;;;;;5047701;28;20154;-70
2022/02/14 07:43:58;;;;;;;7.75;2.88;;;7.60;70.70;;;;;;5054680;28;20029;-70
2022/02/14 07:46:23;;;;;;;7.22;2.33;;;7.70;70.90;;;;;;5050537;28;20416;-71
2022/02/14 07:48:49;;;;;;;4.95;2.53;;;7.80;70.60;;;;;;5048682;28;20044;-70
2022/02/14 07:51:16;;;;;;;6.53;2.80;;;7.80;70.20;;;;;;5062961;28;20040;-70
2022/02/14 07:53:42;;;;;;;11.23;2.72;;;7.80;70.50;;;;;;5052597;28;20009;-70
2022/02/14 07:56:10;;;;;;;6.20;2.72;;;7.80;70.80;;;;;;5053922;28;20032;-71
2022/02/14 07:58:35;;;;;;;9.48;2.50;;;7.80;70.80;;;;;;5059874;28;20518;-70
2022/02/14 08:01:01;;;;;;;7.03;2.35;;;7.90;70.70;;;;;;5056817;28;20044;-70
2022/02/14 08:03:26;;;;;;;5.80;2.55;;;8.00;70.30;;;;;;5061473;28;20059;-70
2022/02/14 08:05:52;;;;;;;4.18;2.08;;;8.00;70.90;;;;;;5059100;28;20620;-72
2022/02/14 08:08:17;;;;;;;6.88;2.60;;;8.00;70.50;;;;;;5047008;28;20025;-71
2022/02/14 08:10:43;;;;;;;6.65;2.30;;;8.10;70.60;;;;;;5063115;28;20420;-71
2022/02/14 08:13:08;;;;;;;4.38;1.88;;;8.10;70.60;;;;;;5059660;28;20105;-71
2022/02/14 08:15:34;;;;;;;5.32;2.33;;;8.10;70.50;;;;;;5055126;28;20313;-69
2022/02/14 08:18:04;;;;;;;8.60;2.55;;;8.10;70.30;;;;;;5064659;28;20020;-70
2022/02/14 08:20:30;;;;;;;10.68;2.55;;;8.10;70.50;;;;;;5061683;28;20097;-70
2022/02/14 08:22:55;;;;;;;6.93;2.50;;;8.20;70.10;;;;;;5050788;28;20118;-69
2022/02/14 08:25:21;;;;;;;7.22;2.47;;;8.30;70.30;;;;;;5066631;28;20036;-70
2022/02/14 08:27:46;;;;;;;5.35;2.15;;;8.30;70.10;;;;;;5067761;28;20032;-70
2022/02/14 08:30:12;;;;;;;6.43;2.10;;;8.30;69.90;;;;;;5060544;28;20033;-70
2022/02/14 08:32:39;;;;;;;8.90;2.33;;;8.30;70.20;;;;;;5061936;28;20033;-69
2022/02/14 08:35:05;;;;;;;4.88;1.98;;;8.30;70.30;;;;;;5065200;28;20035;-69
2022/02/14 08:37:30;;;;;;;6.53;2.40;;;8.30;70.50;;;;;;5062132;28;20526;-70
2022/02/14 08:39:56;;;;;;;4.78;2.25;;;8.30;70.40;;;;;;5069637;28;20103;-70
2022/02/14 08:42:21;;;;;;;6.93;2.40;;;8.40;70.30;;;;;;5067493;28;20113;-70
2022/02/14 08:44:46;;;;;;;4.32;2.00;;;8.40;70.30;;;;;;5068249;28;20440;-69
2022/02/14 08:47:14;;;;;;;4.57;2.00;;;8.50;69.90;;;;;;5057582;28;20349;-69
2022/02/14 08:49:39;;;;;;;4.05;2.10;;;8.50;69.80;;;;;;5068290;28;20502;-69
2022/02/14 08:52:05;;;;;;;6.70;2.03;;;8.60;69.80;;;;;;5057262;28;20119;-70
2022/02/14 08:54:30;;;;;;;7.47;2.40;;;8.70;70.00;;;;;;5060216;28;20158;-70
2022/02/14 08:56:57;;;;;;;5.38;2.25;;;8.60;69.70;;;;;;5059904;28;20111;-70
2022/02/14 08:59:22;;;;;;;4.85;2.22;;;8.70;69.40;;;;;;5069689;28;20533;-70
2022/02/14 09:01:49;;;;;;;5.90;2.00;;;8.80;69.60;;;;;;5070010;28;20074;-70
2022/02/14 09:04:16;;;;;;;5.53;1.80;;;8.90;69.00;;;;;;5071747;28;20077;-70
2022/02/14 09:06:42;;;;;;;9.45;2.25;;;9.00;68.90;;;;;;5061975;28;20044;-70
2022/02/14 09:09:07;;;;;;;3.88;1.98;;;9.00;69.00;;;;;;5069541;28;20499;-70
2022/02/14 09:11:33;;;;;;;4.55;2.20;;;9.10;68.90;;;;;;5070024;28;20127;-70
2022/02/14 09:13:58;;;;;;;6.22;1.90;;;9.30;68.60;;;;;;5069625;28;20399;-70
2022/02/14 09:16:24;;;;;;;4.10;1.92;;;9.40;68.80;;;;;;5067845;28;20017;-70
2022/02/14 09:18:49;;;;;;;5.95;2.42;;;9.50;67.60;;;;;;5069165;28;20030;-70
2022/02/14 09:21:15;;;;;;;4.72;1.90;;;9.60;67.50;;;;;;5061887;28;20447;-69
2022/02/14 09:23:41;;;;;;;4.50;1.75;;;9.80;67.50;;;;;;5064880;28;20372;-70
2022/02/14 09:26:07;;;;;;;5.40;2.20;;;9.90;67.30;;;;;;5061642;28;20025;-69
2022/02/14 09:28:33;;;;;;;7.45;2.38;;;9.80;67.40;;;;;;5063953;28;20094;-70
2022/02/14 09:30:59;;;;;;;4.72;1.98;;;9.80;67.60;;;;;;5063705;28;20445;-70
2022/02/14 09:33:27;;;;;;;5.03;1.80;;;9.80;67.90;;;;;;5063301;28;20025;-70
2022/02/14 09:35:53;;;;;;;4.80;2.13;;;9.80;67.80;;;;;;5059658;28;20104;-69
2022/02/14 09:38:18;;;;;;;5.00;2.17;;;9.80;68.10;;;;;;5049415;28;20040;-70
2022/02/14 09:40:44;;;;;;;5.47;2.25;;;9.80;68.30;;;;;;5059309;28;20511;-70
2022/02/14 09:43:13;;;;;;;6.35;2.40;;;10.00;68.00;;;;;;5066452;28;20431;-69
2022/02/14 09:45:39;;;;;;;4.53;2.13;;;10.00;67.60;;;;;;5044076;28;20030;-70
2022/02/14 09:48:08;;;;;;;3.30;2.00;;;10.30;67.40;;;;;;5030796;28;20421;-70
2022/02/14 09:50:36;;;;;;;5.35;2.22;;;10.40;66.70;;;;;;5036297;28;20044;-69
2022/02/14 09:53:08;;;;;;;10.57;2.33;;;10.50;67.10;;;;;;5039114;28;20047;-70
2022/02/14 09:55:34;;;;;;;4.57;2.20;;;10.60;66.70;;;;;;5046886;28;20024;-70
2022/02/14 09:58:00;;;;;;;4.10;1.98;;;10.70;66.10;;;;;;5050035;28;20502;-70
2022/02/14 10:00:26;;;;;;;4.68;1.90;;;10.70;66.50;;;;;;5050538;28;20043;-70
2022/02/14 10:03:15;;;;;;;5.78;2.45;;;10.70;66.20;;;;;;5040981;28;20442;-70
2022/02/14 10:05:46;;;;;;;3.60;1.90;;;10.80;66.50;;;;;;5056930;28;20024;-70
2022/02/14 10:08:32;;;;;;;5.68;1.98;;;10.90;66.30;;;;;;5065880;28;20085;-70
2022/02/14 10:11:15;;;;;;;2.95;1.67;;;11.10;66.50;;;;;;5042982;28;20037;-70
2022/02/14 10:13:43;;;;;;;6.63;2.40;;;11.00;65.80;;;;;;5038963;28;20033;-71
2022/02/14 10:16:12;;;;;;;5.85;2.00;;;10.80;66.40;;;;;;5047493;28;20032;-70
2022/02/14 10:18:39;;;;;;;6.22;2.38;;;10.90;66.50;;;;;;5055762;28;20021;-70
2022/02/14 10:21:25;;;;;;;7.15;2.08;;;11.40;66.30;;;;;;5029490;28;20425;-70
2022/02/14 10:24:13;;;;;;;3.92;1.90;;;11.30;66.10;;;;;;5059057;28;20036;-70
2022/02/14 10:26:45;;;;;;;4.40;2.30;;;11.20;66.70;;;;;;5045134;28;20116;-71
2022/02/14 10:29:20;;;;;;;4.95;2.08;;;11.10;66.80;;;;;;5037294;28;20430;-70
2022/02/14 10:31:47;;;;;;;6.55;1.95;;;11.10;67.20;;;;;;5049277;28;20432;-70
2022/02/14 10:34:14;;;;;;;4.35;1.85;;;11.20;67.50;;;;;;5056558;28;20032;-70
2022/02/14 10:36:44;;;;;;;5.72;2.10;;;11.10;67.30;;;;;;5062660;28;20025;-70
2022/02/14 10:39:16;;;;;;;3.92;1.85;;;11.10;67.60;;;;;;5067633;28;20020;-70
2022/02/14 10:41:44;;;;;;;4.70;1.95;;;11.00;67.40;;;;;;5041737;28;20048;-71
2022/02/14 10:45:07;;;;;;;5.18;1.88;;;11.00;68.00;;;;;;5071110;28;20030;-70
2022/02/14 10:47:13;;;;;;;5.80;2.17;;;11.00;68.00;;;;;;5065978;28;20047;-71
2022/02/14 10:49:39;;;;;;;3.85;1.80;;;11.00;68.20;;;;;;5068640;28;20490;-70
2022/02/14 10:52:07;;;;;;;4.93;2.13;;;10.90;68.30;;;;;;5065707;28;20025;-70
2022/02/14 10:54:44;;;;;;;2.47;1.67;;;10.90;68.40;;;;;;5069974;28;20023;-70
2022/02/14 10:57:29;;;;;;;5.10;2.13;;;10.80;69.00;;;;;;5074494;28;20016;-71
2022/02/14 11:00:08;;;;;;;5.32;1.85;;;10.80;69.20;;;;;;5046246;28;20116;-71
2022/02/14 11:02:34;;;;;;;3.58;1.83;;;10.70;69.50;;;;;;5046151;28;20025;-71
2022/02/14 11:04:59;;;;;;;6.50;2.10;;;10.70;69.90;;;;;;5061029;28;20048;-70
2022/02/14 11:07:27;;;;;;;4.82;1.80;;;10.70;70.40;;;;;;5069714;28;20453;-70
2022/02/14 11:09:55;;;;;;;5.97;2.00;;;10.60;70.20;;;;;;5048693;28;20033;-70
2022/02/14 11:12:21;;;;;;;5.13;2.05;;;10.60;70.40;;;;;;5054219;28;20044;-70
2022/02/14 11:14:55;;;;;;;5.00;1.90;;;10.60;70.90;;;;;;5053008;28;20355;-70
2022/02/14 11:17:29;;;;;;;5.30;1.92;;;10.60;70.90;;;;;;5056976;28;20391;-70
2022/02/14 11:19:57;;;;;;;3.33;1.77;;;10.60;71.20;;;;;;5058139;28;20031;-69
2022/02/14 11:22:27;;;;;;;3.17;1.50;;;10.70;71.10;;;;;;5052285;28;20199;-69
2022/02/14 11:25:02;;;;;;;4.90;1.77;;;10.70;70.90;;;;;;5062627;28;20029;-69
2022/02/14 11:27:32;;;;;;;5.63;1.65;;;10.80;71.30;;;;;;5061444;28;20039;-69
2022/02/14 11:30:05;;;;;;;3.47;1.75;;;10.80;71.70;;;;;;5060680;28;20141;-69
2022/02/14 11:32:38;;;;;;;5.28;1.70;;;10.80;71.70;;;;;;5062264;28;20024;-69
2022/02/14 11:35:07;;;;;;;4.45;1.50;;;11.00;71.20;;;;;;5062445;28;20118;-69
2022/02/14 11:37:47;;;;;;;6.00;1.58;;;11.20;70.70;;;;;;5058337;28;20025;-69
2022/02/14 11:40:32;;;;;;;5.65;1.60;;;11.30;70.20;;;;;;5063641;28;20039;-69
2022/02/14 11:43:16;;;;;;;4.90;1.77;;;11.30;71.00;;;;;;5059890;28;20105;-70
2022/02/14 11:45:42;;;;;;;2.63;1.50;;;11.40;70.20;;;;;;5058804;28;20039;-71
2022/02/14 11:48:27;;;;;;;5.13;1.80;;;11.60;70.30;;;;;;5055736;28;20028;-71
2022/02/14 11:51:11;;;;;;;3.72;1.40;;;12.10;69.30;;;;;;5060176;28;20024;-70
2022/02/14 11:53:45;;;;;;;6.28;1.67;;;12.20;68.50;;;;;;5058893;28;20048;-70
2022/02/14 11:56:22;;;;;;;5.00;1.08;;;12.10;68.80;;;;;;5063087;28;20103;-70
2022/02/14 11:59:08;;;;;;;4.22;1.30;;;11.90;69.40;;;;;;5068132;28;20044;-70
2022/02/14 12:01:53;;;;;;;3.75;1.40;;;11.80;69.80;;;;;;5060954;28;20475;-70
2022/02/14 12:04:52;;;;;;;2.92;1.45;;;11.60;69.90;;;;;;5061300;28;20193;-70
2022/02/14 12:07:18;;;;;;;2.63;1.40;;;11.60;70.10;;;;;;5069119;28;20032;-70
2022/02/14 12:09:58;;;;;;;4.90;1.63;;;11.60;70.50;;;;;;5065584;28;20033;-69
2022/02/14 12:12:45;;;;;;;3.90;1.38;;;11.60;70.30;;;;;;5056914;28;20112;-69
2022/02/14 12:21:23;;;;;;;2.55;1.20;;;11.70;70.60;;;;;;5054914;28;20189;-70
2022/02/14 12:24:10;;;;;;;5.00;1.35;;;11.80;70.50;;;;;;5061652;28;20411;-70
2022/02/14 12:26:35;;;;;;;6.03;1.80;;;11.70;70.70;;;;;;5069016;28;20119;-70
2022/02/14 12:31:53;;;;;;;2.65;1.38;;;11.70;70.70;;;;;;5060387;28;20036;-72
2022/02/14 12:34:30;;;;;;;3.42;1.40;;;11.60;71.20;;;;;;5064606;28;20028;-70
2022/02/14 12:37:05;;;;;;;3.80;1.20;;;11.50;71.00;;;;;;5064110;28;20024;-72
2022/02/14 12:39:43;;;;;;;5.25;1.58;;;11.50;71.50;;;;;;5070352;28;20027;-71
2022/02/14 12:42:11;;;;;;;8.07;1.80;;;11.40;72.10;;;;;;5064835;28;20036;-70
2022/02/14 12:44:36;;;;;;;2.95;1.50;;;11.40;71.90;;;;;;5071629;28;20032;-70
2022/02/14 12:47:02;;;;;;;3.28;1.60;;;11.30;72.20;;;;;;5063617;28;20523;-70
2022/02/14 12:49:28;;;;;;;2.08;1.27;;;11.30;72.50;;;;;;5055036;28;20365;-70
2022/02/14 12:52:08;;;;;;;5.90;1.60;;;11.40;72.00;;;;;;5068571;28;20025;-71
2022/02/14 12:54:33;;;;;;;4.20;1.75;;;11.60;71.90;;;;;;5064948;28;20055;-70
2022/02/14 12:56:59;;;;;;;3.42;1.48;;;11.70;71.50;;;;;;5063630;28;20056;-70
2022/02/14 12:59:34;;;;;;;3.50;1.80;;;11.60;71.40;;;;;;5065140;28;20040;-71
2022/02/14 13:01:59;;;;;;;2.58;1.23;;;11.50;71.80;;;;;;5061854;28;20123;-70
2022/02/14 13:04:29;;;;;;;6.05;1.70;;;11.50;72.30;;;;;;5061668;28;20111;-70